Terminal Aerodrome Forecast
Issued by NWS

Current Version | Previous Version | Text Only | Print | Product List | Glossary Off
Versions: 1 2 3 4 5 6 7 8 9 10 11 12 13 14 15 16 17 18 19 20 21 22 23 24 25 26 27 28 29 30 31 32 33

000
FTUS41 KILN 171100
TAFLUK
TAF
KLUK 171140Z 1712/1812 00000KT 6SM BR OVC080
     FM171300 16003KT P6SM VCSH SCT050 OVC080
     FM171800 18006KT P6SM -RA VCTS OVC035CB
     FM180300 00000KT 5SM -RA BR OVC060
     FM180900 00000KT 3SM -RA BR OVC028=

USA.gov is the U.S. government's official web portal to all federal, state and local government web resources and services.